Pagina principale
METAR-TAF:

METAR-TAF

Aeroporti :

Aeroporto di Gioia del Colle

Gioia del Colle, Italia

latitudine: 40-46N, longitudine: 016-56E, altezza: 345 m

Osservazione

Il bollettino è stato emesso 1 ora e 20 minuti fa, alle 17:55 UTC
Vento 3 kt da sud/sud-est
Temperature 15°C
Umidità 88%
Pressione 1006 hPa
Visibilità: 9000 m
Poco nuvoloso ad un'altezza di 2300 ft
Nuvoloso ad un'altezza di 5000 ft

METAR: LIBV 191755Z 16003KT 9000 FEW023 BKN050 15/13 Q1006

Ora: 21:15 (19:15 UTC)

Previsione

Il bollettino è stato emesso 2 ore e 15 minuti fa, alle 17:00 UTC
Previsione valida dal 19 alle 18 UTC al 20 alle 03 UTC
Vento 10 kt da nord
Visibilità: 8000 m
Nubi sparse ad un'altezza di 1500 ft
Nuvoloso ad un'altezza di 3000 ft
Evoluzione graduale
dal 19 alle 19 UTC al 19 alle 22 UTC
Visibilità: 5000 m
Nubi sparse ad un'altezza di 1000 ft
Nubi sparse ad un'altezza di 2000 ft
foschia

TAF: LIBV 191700Z 1918/2003 01010KT 8000 SCT015 BKN030 BECMG 1919/1922 17008K 5000 BR SCT010 SCT020

Osservazioni e previsioni meteorologiche di più di 4000 aeroporti (messaggi METAR e TAF).

Le stazioni disponibili sono rappresentate dai dischi gialli e rossi sulla carta.

Puntare il mouse per vedere il nome della stazione.

Clicca sopra per visualizzare le osservazioni e previsioni meteorologiche.

Per cambiare la mappa : fare clic sui pulsanti verdi con una croce nera per ingrandire, il pulsante verde con un trattino per diminuire, o sulla freccia verde per le mappe adiacenti.


METAR-TAF: